createdAt,value
2022-10-19T00:01:20.556Z,36.95
2022-10-19T00:03:50.631Z,33.90
2022-10-19T00:06:27.325Z,31.02
2022-10-19T00:08:58.440Z,33.03
2022-10-19T00:11:26.637Z,28.70
2022-10-19T00:13:55.223Z,29.70
2022-10-19T00:16:23.088Z,30.83
2022-10-19T00:18:50.460Z,37.92
2022-10-19T00:21:19.582Z,37.88
2022-10-19T00:23:48.199Z,37.70
2022-10-19T00:26:15.599Z,32.83
2022-10-19T00:28:43.640Z,36.67
2022-10-19T00:31:32.392Z,34.55
2022-10-19T00:34:00.715Z,43.88
2022-10-19T00:36:31.073Z,32.63
2022-10-19T00:38:59.531Z,35.80
2022-10-19T00:41:29.761Z,32.72
2022-10-19T00:44:20.097Z,40.72
2022-10-19T00:46:51.888Z,36.20
2022-10-19T00:49:25.644Z,38.50
2022-10-19T00:52:08.761Z,35.33
2022-10-19T00:54:39.019Z,32.80
2022-10-19T00:57:07.923Z,39.05
2022-10-19T00:59:38.279Z,36.90
2022-10-19T01:02:07.037Z,41.67
2022-10-19T01:04:37.724Z,41.47
2022-10-19T01:07:06.852Z,39.97
2022-10-19T01:09:34.557Z,39.90
2022-10-19T01:12:10.888Z,36.00
2022-10-19T01:14:58.579Z,36.83
2022-10-19T01:18:04.282Z,35.92
2022-10-19T01:20:57.618Z,35.60
2022-10-19T01:23:55.273Z,38.00
2022-10-19T01:26:48.333Z,38.03
2022-10-19T01:29:37.958Z,37.97
2022-10-19T01:32:05.175Z,36.65
2022-10-19T01:34:57.652Z,36.88
2022-10-19T01:38:01.787Z,39.03
2022-10-19T01:40:55.290Z,41.25
2022-10-19T01:43:30.607Z,38.65
2022-10-19T01:46:13.447Z,38.03
2022-10-19T01:48:46.637Z,34.65
2022-10-19T01:51:21.939Z,33.95
2022-10-19T01:53:54.295Z,30.25
2022-10-19T01:56:26.858Z,43.37
2022-10-19T01:58:58.713Z,34.97
2022-10-19T02:01:30.152Z,36.15
2022-10-19T02:03:58.699Z,38.53
2022-10-19T02:06:26.124Z,36.50
2022-10-19T02:08:54.489Z,39.58
2022-10-19T02:11:23.910Z,38.88
2022-10-19T02:14:04.545Z,38.92
2022-10-19T02:16:36.460Z,36.58
2022-10-19T02:19:05.370Z,38.60
2022-10-19T02:21:32.849Z,39.95
2022-10-19T02:24:00.286Z,38.83
2022-10-19T02:26:27.641Z,34.40
2022-10-19T02:28:56.458Z,39.80
2022-10-19T02:31:24.629Z,37.08
2022-10-19T02:33:52.462Z,35.03
2022-10-19T02:36:20.325Z,41.08
2022-10-19T02:38:47.745Z,33.83
2022-10-19T02:41:31.090Z,38.08
2022-10-19T02:44:10.013Z,44.95
2022-10-19T02:47:00.984Z,37.85
2022-10-19T02:49:30.504Z,33.75
2022-10-19T02:52:03.960Z,33.22
2022-10-19T02:54:31.565Z,37.88
2022-10-19T02:56:58.843Z,36.47
2022-10-19T02:59:26.308Z,37.35
2022-10-19T03:01:53.593Z,43.05
2022-10-19T03:04:20.919Z,40.83
2022-10-19T03:06:48.218Z,37.72
2022-10-19T03:09:15.610Z,41.20
2022-10-19T03:11:42.906Z,39.25
2022-10-19T03:14:10.313Z,39.58
2022-10-19T03:16:37.623Z,42.60
2022-10-19T03:19:04.924Z,41.33
2022-10-19T03:21:34.612Z,37.78
2022-10-19T03:24:02.105Z,34.33
2022-10-19T03:26:29.544Z,42.35
2022-10-19T03:28:57.082Z,39.70
2022-10-19T03:31:24.633Z,41.92
2022-10-19T03:33:51.943Z,38.40
2022-10-19T03:36:27.920Z,35.38
2022-10-19T03:38:57.639Z,40.00
2022-10-19T03:41:29.157Z,35.38
2022-10-19T03:43:57.575Z,37.65
2022-10-19T03:46:25.236Z,35.95
2022-10-19T03:48:52.872Z,38.45
2022-10-19T03:51:25.828Z,39.17
2022-10-19T03:53:57.283Z,33.65
2022-10-19T03:56:26.980Z,37.63
2022-10-19T03:58:56.075Z,39.00
2022-10-19T04:01:29.261Z,39.65
2022-10-19T04:06:37.316Z,33.00
2022-10-19T04:09:06.244Z,40.97
2022-10-19T04:11:34.805Z,37.75
2022-10-19T04:14:02.147Z,39.70
2022-10-19T04:16:31.291Z,37.25
2022-10-19T04:18:59.112Z,37.08
2022-10-19T04:21:29.944Z,33.35
2022-10-19T04:24:02.709Z,35.05
2022-10-19T04:26:30.550Z,38.70
2022-10-19T04:29:01.726Z,35.90
2022-10-19T04:31:29.713Z,47.63
2022-10-19T04:33:57.416Z,43.95
2022-10-19T04:36:24.889Z,39.30
2022-10-19T04:38:52.252Z,42.80
2022-10-19T04:41:21.902Z,39.47
2022-10-19T04:43:50.295Z,34.35
2022-10-19T04:46:19.368Z,41.40
2022-10-19T04:48:48.295Z,46.58
2022-10-19T04:51:16.503Z,42.65
2022-10-19T04:53:44.539Z,41.38
2022-10-19T04:56:18.743Z,34.75
2022-10-19T04:58:46.565Z,36.42
2022-10-19T05:01:14.978Z,39.20
2022-10-19T05:03:42.635Z,37.33
2022-10-19T05:06:11.362Z,41.65
2022-10-19T05:08:39.583Z,36.42
2022-10-19T05:11:14.921Z,38.90
2022-10-19T05:13:42.804Z,35.70
2022-10-19T05:16:16.215Z,38.65
2022-10-19T05:18:46.547Z,37.47
2022-10-19T05:21:15.340Z,32.67
2022-10-19T05:23:43.103Z,38.92
2022-10-19T05:26:13.197Z,35.13
2022-10-19T05:28:40.681Z,32.58
2022-10-19T05:31:19.223Z,35.85
2022-10-19T05:33:46.808Z,34.90
2022-10-19T05:36:19.292Z,33.55
2022-10-19T05:38:48.620Z,32.38
2022-10-19T05:41:17.175Z,34.75
2022-10-19T05:43:45.340Z,32.10
2022-10-19T05:46:17.458Z,34.90
2022-10-19T05:48:45.921Z,38.05
2022-10-19T05:51:15.273Z,34.83
2022-10-19T05:53:42.919Z,40.10
2022-10-19T05:56:18.087Z,41.17
2022-10-19T05:58:46.134Z,32.75
2022-10-19T06:01:14.261Z,32.03
2022-10-19T06:03:42.037Z,33.15
2022-10-19T06:06:09.805Z,34.28
2022-10-19T06:08:38.109Z,33.53
2022-10-19T06:11:14.472Z,31.42
2022-10-19T06:13:43.549Z,36.50
2022-10-19T06:16:12.775Z,37.67
2022-10-19T06:18:41.034Z,35.92
2022-10-19T06:21:12.712Z,38.03
2022-10-19T06:26:14.676Z,40.25
2022-10-19T06:28:43.862Z,35.75
2022-10-19T06:31:11.386Z,39.75
2022-10-19T06:33:40.772Z,34.00
2022-10-19T06:36:09.827Z,38.83
2022-10-19T06:38:37.244Z,54.00
2022-10-19T06:41:04.626Z,34.45
2022-10-19T06:43:32.715Z,38.38
2022-10-19T06:46:08.141Z,40.22
2022-10-19T06:48:35.639Z,37.92
2022-10-19T06:51:06.406Z,43.17
2022-10-19T06:53:35.432Z,42.47
2022-10-19T06:56:05.517Z,36.70
2022-10-19T06:58:37.283Z,35.78
2022-10-19T07:01:07.703Z,44.08
2022-10-19T07:03:35.982Z,39.00
2022-10-19T07:06:06.821Z,38.15
2022-10-19T07:08:36.136Z,43.22
2022-10-19T07:11:25.084Z,32.92
2022-10-19T07:13:53.478Z,35.95
2022-10-19T07:16:21.747Z,39.00
2022-10-19T07:18:52.120Z,38.80
2022-10-19T07:21:21.267Z,39.53
2022-10-19T07:23:49.126Z,39.67
2022-10-19T07:26:21.255Z,43.40
2022-10-19T07:28:49.376Z,37.53
2022-10-19T07:31:18.964Z,43.75
2022-10-19T07:33:47.243Z,42.47
2022-10-19T07:36:14.710Z,44.60
2022-10-19T07:38:42.106Z,47.00
2022-10-19T07:41:15.284Z,53.90
2022-10-19T07:43:44.684Z,42.42
2022-10-19T07:46:19.923Z,45.38
2022-10-19T07:48:48.039Z,48.15
2022-10-19T07:51:17.739Z,48.22
2022-10-19T07:53:45.599Z,52.85
2022-10-19T07:56:15.854Z,51.30
2022-10-19T07:58:43.796Z,51.63
2022-10-19T08:01:16.128Z,46.75
2022-10-19T08:06:31.916Z,54.20
2022-10-19T08:08:59.369Z,54.17
2022-10-19T08:11:30.784Z,49.03
2022-10-19T08:14:03.082Z,52.58
2022-10-19T08:16:37.489Z,47.50
2022-10-19T08:19:08.064Z,54.22
2022-10-19T08:21:36.545Z,47.78
2022-10-19T08:24:04.541Z,54.88
2022-10-19T08:26:38.255Z,47.50
2022-10-19T08:29:11.654Z,54.08
2022-10-19T08:31:39.331Z,57.38
2022-10-19T08:34:07.590Z,57.97
2022-10-19T08:36:35.808Z,51.67
2022-10-19T08:39:06.266Z,49.33
2022-10-19T08:42:11.319Z,49.38
2022-10-19T08:44:53.488Z,45.25
2022-10-19T08:47:42.873Z,50.78
2022-10-19T08:50:24.311Z,51.00
2022-10-19T08:53:02.379Z,49.10
2022-10-19T08:55:51.712Z,50.28
2022-10-19T08:58:44.625Z,52.80
2022-10-19T09:01:16.413Z,54.80
2022-10-19T09:03:56.348Z,46.70
2022-10-19T09:06:39.110Z,54.88
2022-10-19T09:09:06.937Z,51.50
2022-10-19T09:11:42.591Z,48.20
2022-10-19T09:14:49.452Z,55.67
2022-10-19T09:17:17.170Z,50.88
2022-10-19T09:19:44.568Z,51.08
2022-10-19T09:22:19.013Z,57.50
2022-10-19T09:25:03.109Z,50.90
2022-10-19T09:27:41.275Z,52.72
2022-10-19T09:30:22.067Z,59.38
2022-10-19T09:32:58.684Z,55.38
2022-10-19T09:35:41.296Z,55.25
2022-10-19T09:38:10.933Z,56.00
2022-10-19T09:40:38.220Z,49.35
2022-10-19T09:43:19.984Z,55.35
2022-10-19T09:45:55.373Z,53.42
2022-10-19T09:48:46.733Z,56.03
2022-10-19T09:51:16.434Z,56.85
2022-10-19T09:53:55.099Z,51.50
2022-10-19T09:56:27.531Z,56.20
2022-10-19T09:58:59.759Z,53.75
2022-10-19T10:01:41.758Z,54.08
2022-10-19T10:04:18.248Z,61.88
2022-10-19T10:06:48.327Z,54.95
2022-10-19T10:09:23.417Z,52.35
2022-10-19T10:14:36.667Z,50.17
2022-10-19T10:17:05.291Z,47.03
2022-10-19T10:19:36.061Z,51.20
2022-10-19T10:22:04.296Z,50.72
2022-10-19T10:24:34.140Z,51.42
2022-10-19T10:27:04.670Z,48.28
2022-10-19T10:29:37.599Z,50.13
2022-10-19T10:32:16.463Z,43.35
2022-10-19T10:35:06.349Z,48.50
2022-10-19T10:37:42.429Z,54.15
2022-10-19T10:40:26.762Z,44.92
2022-10-19T10:42:57.327Z,41.47
2022-10-19T10:45:32.456Z,42.75
2022-10-19T10:48:26.512Z,44.95
2022-10-19T10:50:54.141Z,45.33
2022-10-19T10:53:41.118Z,48.95
2022-10-19T10:56:26.975Z,58.13
2022-10-19T10:59:04.961Z,42.00
2022-10-19T11:01:49.005Z,46.03
2022-10-19T11:04:22.645Z,46.17
2022-10-19T11:06:57.624Z,48.05
2022-10-19T11:09:28.586Z,49.40
2022-10-19T11:11:59.968Z,42.40
2022-10-19T11:14:43.769Z,48.22
2022-10-19T11:17:33.072Z,49.38
2022-10-19T11:20:01.179Z,53.08
2022-10-19T11:22:43.557Z,42.60
2022-10-19T11:25:32.080Z,46.15
2022-10-19T11:28:20.700Z,53.72
2022-10-19T11:30:54.241Z,42.13
2022-10-19T11:33:54.786Z,52.90
2022-10-19T11:36:43.589Z,38.70
2022-10-19T11:39:19.972Z,43.13
2022-10-19T11:42:06.670Z,51.28
2022-10-19T11:44:52.061Z,49.47
2022-10-19T11:47:31.961Z,43.30
2022-10-19T11:50:25.065Z,40.33
2022-10-19T11:53:12.252Z,46.47
2022-10-19T11:56:06.670Z,41.13
2022-10-19T11:58:45.666Z,39.22
2022-10-19T12:01:25.249Z,37.80
2022-10-19T12:03:58.695Z,30.88
2022-10-19T12:06:47.783Z,35.55
2022-10-19T12:09:39.573Z,33.40
2022-10-19T12:12:25.820Z,38.08
2022-10-19T12:14:59.964Z,32.13
2022-10-19T12:17:32.106Z,34.88
2022-10-19T12:20:04.619Z,33.90
2022-10-19T12:25:01.885Z,30.05
2022-10-19T12:27:38.426Z,28.60
2022-10-19T12:30:08.232Z,26.55
2022-10-19T12:32:54.164Z,35.60
2022-10-19T12:35:49.598Z,36.72
2022-10-19T12:38:26.663Z,33.05
2022-10-19T12:41:23.630Z,36.95
2022-10-19T12:44:09.058Z,33.72
2022-10-19T12:46:49.828Z,40.10
2022-10-19T12:49:29.100Z,36.75
2022-10-19T12:52:00.960Z,37.45
2022-10-19T12:54:34.043Z,36.30
2022-10-19T12:57:03.213Z,40.50
2022-10-19T12:59:33.405Z,39.22
2022-10-19T13:02:02.613Z,34.35
2022-10-19T13:04:35.813Z,36.55
2022-10-19T13:07:08.027Z,36.67
2022-10-19T13:09:48.705Z,30.23
2022-10-19T13:12:19.683Z,37.30
2022-10-19T13:14:59.405Z,37.70
2022-10-19T13:17:40.693Z,36.75
2022-10-19T13:20:14.275Z,31.98
2022-10-19T13:23:10.617Z,30.75
2022-10-19T13:25:39.484Z,35.97
2022-10-19T13:28:06.806Z,36.90
2022-10-19T13:30:37.161Z,37.88
2022-10-19T13:33:45.007Z,41.92
2022-10-19T13:36:12.935Z,43.95
2022-10-19T13:38:44.439Z,47.15
2022-10-19T13:41:16.508Z,39.70
2022-10-19T13:43:43.780Z,38.42
2022-10-19T13:46:15.467Z,36.17
2022-10-19T13:48:45.768Z,28.40
2022-10-19T13:51:32.837Z,37.53
2022-10-19T13:54:24.708Z,35.38
2022-10-19T13:57:34.312Z,31.95
2022-10-19T14:00:19.744Z,32.70
2022-10-19T14:02:55.987Z,37.95
2022-10-19T14:05:45.058Z,39.97
2022-10-19T14:08:31.099Z,40.70
2022-10-19T14:11:13.086Z,42.47
2022-10-19T14:13:40.455Z,41.10
2022-10-19T14:16:17.215Z,41.50
2022-10-19T14:18:44.589Z,39.92
2022-10-19T14:21:12.003Z,45.47
2022-10-19T14:23:40.243Z,38.72
2022-10-19T14:26:14.778Z,42.72
2022-10-19T14:28:43.052Z,40.15
2022-10-19T14:31:17.613Z,40.65
2022-10-19T14:33:48.093Z,39.83
2022-10-19T14:36:18.804Z,37.45
2022-10-19T14:38:48.540Z,38.22
2022-10-19T14:41:27.801Z,37.20
2022-10-19T14:43:56.649Z,39.22
2022-10-19T14:46:30.958Z,41.20
2022-10-19T14:49:04.219Z,38.25
2022-10-19T14:51:42.249Z,41.15
2022-10-19T14:54:30.465Z,38.72
2022-10-19T14:57:24.889Z,43.13
2022-10-19T15:00:18.095Z,38.95
2022-10-19T15:03:04.199Z,36.40
2022-10-19T15:05:34.931Z,41.55
2022-10-19T15:08:11.390Z,41.42
2022-10-19T15:10:45.744Z,38.78
2022-10-19T15:13:35.960Z,35.67
2022-10-19T15:16:03.408Z,38.25
2022-10-19T15:18:48.904Z,36.85
2022-10-19T15:21:21.169Z,35.13
2022-10-19T15:23:52.360Z,43.13
2022-10-19T15:26:25.470Z,40.40
2022-10-19T15:31:25.934Z,38.10
2022-10-19T15:33:55.741Z,38.42
2022-10-19T15:36:24.392Z,36.22
2022-10-19T15:39:06.184Z,39.25
2022-10-19T15:41:45.215Z,40.00
2022-10-19T15:44:40.543Z,39.63
2022-10-19T15:47:19.781Z,39.90
2022-10-19T15:49:57.918Z,34.85
2022-10-19T15:52:28.111Z,38.53
2022-10-19T15:54:57.949Z,36.88
2022-10-19T15:57:36.362Z,48.88
2022-10-19T16:00:17.816Z,44.65
2022-10-19T16:02:45.221Z,39.58
2022-10-19T16:05:12.592Z,42.33
2022-10-19T16:07:41.404Z,39.20
2022-10-19T16:10:21.650Z,41.97
2022-10-19T16:12:49.401Z,40.22
2022-10-19T16:15:22.471Z,39.75
2022-10-19T16:17:53.401Z,44.33
2022-10-19T16:20:21.884Z,40.78
2022-10-19T16:22:49.487Z,34.40
2022-10-19T16:25:17.594Z,39.03
2022-10-19T16:27:44.975Z,38.42
2022-10-19T16:30:12.897Z,39.38
2022-10-19T16:35:12.816Z,42.58
2022-10-19T16:37:40.190Z,44.20
2022-10-19T16:40:08.438Z,51.05
2022-10-19T16:42:36.046Z,37.83
2022-10-19T16:45:04.004Z,39.25
2022-10-19T16:47:31.352Z,39.28
2022-10-19T16:50:04.175Z,40.25
2022-10-19T16:52:33.189Z,37.28
2022-10-19T16:55:00.913Z,39.60
2022-10-19T16:57:28.225Z,43.35
2022-10-19T16:59:55.676Z,34.28
2022-10-19T17:02:23.282Z,42.63
2022-10-19T17:04:50.698Z,35.47
2022-10-19T17:07:18.756Z,38.90
2022-10-19T17:09:47.873Z,39.88
2022-10-19T17:12:17.064Z,109.45
2022-10-19T17:14:44.398Z,45.00
2022-10-19T17:17:11.852Z,40.80
2022-10-19T17:19:39.656Z,106.07
2022-10-19T17:22:07.123Z,73.68
2022-10-19T17:24:34.786Z,69.65
2022-10-19T17:27:03.364Z,64.30
2022-10-19T17:29:31.065Z,44.05
2022-10-19T17:31:59.146Z,37.28
2022-10-19T17:34:27.392Z,39.60
2022-10-19T17:36:54.991Z,41.83
2022-10-19T17:39:27.220Z,42.13
2022-10-19T17:42:01.901Z,41.92
2022-10-19T17:44:31.305Z,41.97
2022-10-19T17:47:00.436Z,44.75
2022-10-19T17:49:29.667Z,53.40
2022-10-19T17:51:57.033Z,81.22
2022-10-19T17:54:24.573Z,48.78
2022-10-19T17:56:52.008Z,43.90
2022-10-19T17:59:30.338Z,72.35
2022-10-19T18:02:03.644Z,103.43
2022-10-19T18:04:31.043Z,69.18
2022-10-19T18:06:58.341Z,59.20
2022-10-19T18:09:25.737Z,34.58
2022-10-19T18:11:53.021Z,41.40
2022-10-19T18:14:20.292Z,37.55
2022-10-19T18:16:47.966Z,45.67
2022-10-19T18:19:16.950Z,41.75
2022-10-19T18:21:46.740Z,40.90
2022-10-19T18:24:19.422Z,39.25
2022-10-19T18:26:48.119Z,43.72
2022-10-19T18:29:18.943Z,37.92
2022-10-19T18:31:51.698Z,38.75
2022-10-19T18:34:22.439Z,45.33
2022-10-19T18:36:50.112Z,54.55
2022-10-19T18:39:17.736Z,44.00
2022-10-19T18:41:45.502Z,44.13
2022-10-19T18:44:14.484Z,42.33
2022-10-19T18:46:41.886Z,44.00
2022-10-19T18:49:11.159Z,36.50
2022-10-19T18:51:38.823Z,82.70
2022-10-19T18:54:07.419Z,64.03
2022-10-19T18:56:36.751Z,53.78
2022-10-19T18:59:05.767Z,140.63
2022-10-19T19:01:33.788Z,69.50
2022-10-19T19:04:07.530Z,70.15
2022-10-19T19:06:38.263Z,67.80
2022-10-19T19:09:09.462Z,37.42
2022-10-19T19:11:38.393Z,69.53
2022-10-19T19:14:10.920Z,65.72
2022-10-19T19:16:39.607Z,83.95
2022-10-19T19:19:08.087Z,54.92
2022-10-19T19:21:36.572Z,42.50
2022-10-19T19:24:07.090Z,44.83
2022-10-19T19:26:38.897Z,34.38
2022-10-19T19:29:06.613Z,37.22
2022-10-19T19:31:35.934Z,32.40
2022-10-19T19:34:07.236Z,32.75
2022-10-19T19:36:35.895Z,32.40
2022-10-19T19:39:04.832Z,35.58
2022-10-19T19:41:34.586Z,33.55
2022-10-19T19:44:02.528Z,30.35
2022-10-19T19:46:30.568Z,30.25
2022-10-19T19:49:03.937Z,30.80
2022-10-19T19:51:33.911Z,28.90
2022-10-19T19:54:01.873Z,27.88
2022-10-19T19:56:29.635Z,26.50
2022-10-19T19:58:59.412Z,29.00
2022-10-19T20:01:27.353Z,24.65
2022-10-19T20:03:57.271Z,26.95
2022-10-19T20:06:26.033Z,27.90
2022-10-19T20:08:55.260Z,29.42
2022-10-19T20:11:24.496Z,25.08
2022-10-19T20:13:51.921Z,27.20
2022-10-19T20:16:25.151Z,26.08
2022-10-19T20:19:00.106Z,26.17
2022-10-19T20:21:27.789Z,21.48
2022-10-19T20:23:55.085Z,23.73
2022-10-19T20:26:24.031Z,20.13
2022-10-19T20:28:51.836Z,23.95
2022-10-19T20:31:20.114Z,20.85
2022-10-19T20:33:48.145Z,21.13
2022-10-19T20:36:24.462Z,18.42
2022-10-19T20:38:57.061Z,19.25
2022-10-19T20:41:26.378Z,17.13
2022-10-19T20:43:54.561Z,20.98
2022-10-19T20:46:25.314Z,19.05
2022-10-19T20:48:54.652Z,15.85
2022-10-19T20:51:30.855Z,12.80
2022-10-19T20:54:01.591Z,16.25
2022-10-19T20:56:31.892Z,14.35
2022-10-19T21:01:36.785Z,11.90
2022-10-19T21:04:06.721Z,11.95
2022-10-19T21:06:38.612Z,12.77
2022-10-19T21:09:06.303Z,10.40
2022-10-19T21:11:36.219Z,10.82
2022-10-19T21:14:07.109Z,13.13
2022-10-19T21:16:35.242Z,10.30
2022-10-19T21:19:04.771Z,10.40
2022-10-19T21:21:35.036Z,9.38
2022-10-19T21:24:05.495Z,6.47
2022-10-19T21:26:35.187Z,9.57
2022-10-19T21:29:08.424Z,7.50
2022-10-19T21:31:37.735Z,7.68
2022-10-19T21:34:13.325Z,4.57
2022-10-19T21:36:40.958Z,7.10
2022-10-19T21:39:08.864Z,7.72
2022-10-19T21:41:36.411Z,6.47
2022-10-19T21:44:04.134Z,8.05
2022-10-19T21:46:31.517Z,8.20
2022-10-19T21:48:59.112Z,5.90
2022-10-19T21:51:34.660Z,10.70
2022-10-19T21:54:06.925Z,7.32
2022-10-19T21:56:34.729Z,7.43
2022-10-19T21:59:02.541Z,8.05
2022-10-19T22:01:37.245Z,5.13
2022-10-19T22:04:13.456Z,8.40
2022-10-19T22:06:41.686Z,6.97
2022-10-19T22:09:12.121Z,9.10
2022-10-19T22:11:39.610Z,5.95
2022-10-19T22:14:06.979Z,6.30
2022-10-19T22:16:36.967Z,7.47
2022-10-19T22:19:05.901Z,8.48
2022-10-19T22:21:34.628Z,7.45
2022-10-19T22:24:05.424Z,9.15
2022-10-19T22:26:36.025Z,6.47
2022-10-19T22:29:05.253Z,7.38
2022-10-19T22:31:33.951Z,10.02
2022-10-19T22:34:04.263Z,8.73
2022-10-19T22:36:31.615Z,7.57
2022-10-19T22:38:58.959Z,9.32
2022-10-19T22:41:26.334Z,8.48
2022-10-19T22:43:53.702Z,7.85
2022-10-19T22:46:21.103Z,8.88
2022-10-19T22:48:48.367Z,12.20
2022-10-19T22:51:15.745Z,8.07
2022-10-19T22:53:43.763Z,6.43
2022-10-19T22:56:12.616Z,10.60
2022-10-19T22:58:40.212Z,8.05
2022-10-19T23:01:11.277Z,14.93
2022-10-19T23:03:40.298Z,9.25
2022-10-19T23:06:09.327Z,13.27
2022-10-19T23:08:37.322Z,11.02
2022-10-19T23:11:05.127Z,14.27
2022-10-19T23:13:32.811Z,8.07
2022-10-19T23:16:00.226Z,10.30
2022-10-19T23:18:30.207Z,10.60
2022-10-19T23:21:00.290Z,11.98
2022-10-19T23:23:29.368Z,17.23
2022-10-19T23:26:04.253Z,15.13
2022-10-19T23:28:33.162Z,14.35
2022-10-19T23:31:18.595Z,14.07
2022-10-19T23:33:46.817Z,13.30
2022-10-19T23:36:20.422Z,10.43
2022-10-19T23:38:49.858Z,13.77
2022-10-19T23:41:18.690Z,15.85
2022-10-19T23:43:46.383Z,17.13
2022-10-19T23:46:14.209Z,17.05
2022-10-19T23:48:42.183Z,22.40
2022-10-19T23:51:12.387Z,12.43
2022-10-19T23:53:42.305Z,11.35
2022-10-19T23:56:16.160Z,13.50
2022-10-19T23:58:43.728Z,12.95
